createdAt,value
2018-04-27T00:07:09.930Z,6.66
2018-04-27T00:27:46.172Z,6.64
2018-04-27T00:48:20.440Z,6.51
2018-04-27T01:08:53.303Z,6.35
2018-04-27T01:29:28.576Z,6.17
2018-04-27T01:50:03.847Z,6.08
2018-04-27T02:10:36.968Z,5.93
2018-04-27T02:25:18.780Z,5.58
2018-04-27T02:27:48.011Z,5.68
2018-04-27T02:30:16.345Z,5.58
2018-04-27T02:32:45.433Z,5.69
2018-04-27T02:35:13.793Z,5.79
2018-04-27T02:37:42.521Z,5.84
2018-04-27T02:40:10.858Z,5.76
2018-04-27T02:42:39.568Z,5.87
2018-04-27T02:45:08.880Z,5.92
2018-04-27T02:47:38.132Z,5.63
2018-04-27T02:50:06.808Z,5.52
2018-04-27T02:52:35.508Z,5.58
2018-04-27T02:55:05.257Z,5.41
2018-04-27T02:57:37.188Z,5.33
2018-04-27T03:00:05.703Z,5.27
2018-04-27T03:02:37.279Z,5.30
2018-04-27T03:05:05.598Z,5.37
2018-04-27T03:10:16.374Z,5.31
2018-04-27T03:12:49.608Z,5.23
2018-04-27T03:15:24.361Z,5.33
2018-04-27T03:17:52.742Z,5.53
2018-04-27T03:20:28.336Z,5.58
2018-04-27T03:22:58.409Z,5.59
2018-04-27T03:25:27.973Z,5.59
2018-04-27T03:27:56.437Z,5.61
2018-04-27T03:30:24.805Z,5.49
2018-04-27T03:32:53.222Z,5.54
2018-04-27T03:35:23.416Z,5.50
2018-04-27T03:37:51.830Z,5.51
2018-04-27T03:40:20.165Z,5.43
2018-04-27T03:42:48.574Z,5.43
2018-04-27T03:45:16.980Z,5.43
2018-04-27T03:47:45.338Z,5.40
2018-04-27T03:50:13.721Z,5.40
2018-04-27T03:52:42.402Z,5.42
2018-04-27T03:55:12.735Z,5.40
2018-04-27T03:57:41.048Z,5.41
2018-04-27T04:00:26.834Z,5.47
2018-04-27T04:03:12.824Z,5.40
2018-04-27T04:05:41.078Z,5.32
2018-04-27T04:08:09.340Z,5.31
2018-04-27T04:10:37.634Z,5.28
2018-04-27T04:13:06.287Z,5.27
2018-04-27T04:15:34.615Z,5.26
2018-04-27T04:18:03.394Z,5.19
2018-04-27T04:20:31.672Z,5.19
2018-04-27T04:23:00.008Z,5.27
2018-04-27T04:25:28.264Z,5.24
2018-04-27T04:27:58.413Z,5.01
2018-04-27T04:30:26.697Z,5.14
2018-04-27T04:32:54.947Z,5.26
2018-04-27T04:35:23.216Z,5.29
2018-04-27T04:37:51.512Z,5.30
2018-04-27T04:40:19.777Z,5.24
2018-04-27T04:42:48.066Z,5.14
2018-04-27T04:45:16.356Z,4.97
2018-04-27T04:47:44.638Z,5.04
2018-04-27T04:50:12.952Z,5.13
2018-04-27T04:52:41.224Z,5.07
2018-04-27T04:55:09.506Z,5.20
2018-04-27T04:57:37.813Z,5.15
2018-04-27T05:00:06.854Z,5.27
2018-04-27T05:02:35.142Z,5.47
2018-04-27T05:05:03.417Z,5.51
2018-04-27T05:07:31.678Z,5.51
2018-04-27T05:09:59.958Z,5.66
2018-04-27T05:12:28.272Z,5.70
2018-04-27T05:14:56.623Z,5.50
2018-04-27T05:17:24.849Z,5.54
2018-04-27T05:19:54.962Z,5.68
2018-04-27T05:22:23.236Z,5.73
2018-04-27T05:24:51.508Z,5.69
2018-04-27T05:27:19.770Z,5.85
2018-04-27T05:29:48.116Z,5.95
2018-04-27T05:32:17.129Z,6.00
2018-04-27T05:34:45.397Z,6.07
2018-04-27T05:37:13.689Z,6.09
2018-04-27T05:39:41.975Z,5.93
2018-04-27T05:42:10.263Z,6.02
2018-04-27T05:44:38.539Z,6.13
2018-04-27T05:47:06.808Z,6.22
2018-04-27T05:49:35.091Z,6.33
2018-04-27T05:52:03.342Z,6.11
2018-04-27T05:54:31.635Z,6.15
2018-04-27T05:56:59.916Z,6.27
2018-04-27T05:59:28.192Z,6.37
2018-04-27T06:01:56.865Z,6.49
2018-04-27T06:04:25.128Z,6.51
2018-04-27T06:06:53.424Z,6.38
2018-04-27T06:09:21.726Z,6.33
2018-04-27T06:11:49.977Z,6.36
2018-04-27T06:14:18.273Z,6.52
2018-04-27T06:16:46.575Z,6.58
2018-04-27T06:19:14.829Z,6.60
2018-04-27T06:21:43.125Z,6.60
2018-04-27T06:24:11.394Z,6.67
2018-04-27T06:26:39.668Z,6.81
2018-04-27T06:29:07.947Z,6.80
2018-04-27T06:31:36.200Z,6.78
2018-04-27T06:34:04.505Z,6.85
2018-04-27T06:36:32.767Z,6.97
2018-04-27T06:39:01.040Z,7.21
2018-04-27T06:41:29.333Z,7.20
2018-04-27T06:43:57.597Z,7.35
2018-04-27T06:46:25.890Z,7.50
2018-04-27T06:48:54.203Z,7.61
2018-04-27T06:51:22.491Z,7.75
2018-04-27T06:53:50.807Z,7.82
2018-04-27T06:56:19.081Z,7.91
2018-04-27T06:58:47.364Z,8.02
2018-04-27T07:01:15.632Z,8.10
2018-04-27T07:03:43.923Z,8.21
2018-04-27T07:06:12.195Z,8.35
2018-04-27T07:08:40.465Z,8.41
2018-04-27T07:11:08.766Z,8.52
2018-04-27T07:13:37.024Z,8.59
2018-04-27T07:16:05.281Z,8.65
2018-04-27T07:18:33.545Z,8.77
2018-04-27T07:21:01.805Z,8.85
2018-04-27T07:23:30.091Z,8.97
2018-04-27T07:25:59.132Z,9.08
2018-04-27T07:28:27.419Z,9.21
2018-04-27T07:30:55.686Z,9.32
2018-04-27T07:33:23.938Z,9.44
2018-04-27T07:35:52.228Z,9.56
2018-04-27T07:38:20.500Z,9.66
2018-04-27T07:40:48.784Z,9.76
2018-04-27T07:43:17.081Z,9.87
2018-04-27T07:45:45.350Z,10.02
2018-04-27T07:48:13.621Z,10.13
2018-04-27T07:50:41.936Z,10.24
2018-04-27T07:53:10.212Z,10.33
2018-04-27T07:55:38.469Z,10.44
2018-04-27T07:58:06.762Z,10.66
2018-04-27T08:00:35.050Z,10.83
2018-04-27T08:03:03.324Z,10.93
2018-04-27T08:05:31.597Z,11.11
2018-04-27T08:07:59.881Z,11.24
2018-04-27T08:10:28.174Z,11.35
2018-04-27T08:12:56.457Z,11.45
2018-04-27T08:15:25.511Z,11.48
2018-04-27T08:17:53.799Z,11.61
2018-04-27T08:20:31.153Z,11.74
2018-04-27T08:23:00.377Z,11.80
2018-04-27T08:25:40.189Z,11.88
2018-04-27T08:28:08.482Z,11.98
2018-04-27T08:30:36.792Z,12.09
2018-04-27T08:33:05.060Z,12.22
2018-04-27T08:35:33.360Z,12.31
2018-04-27T08:38:01.638Z,12.45
2018-04-27T08:40:29.932Z,12.47
2018-04-27T08:42:58.247Z,12.54
2018-04-27T08:45:26.527Z,12.65
2018-04-27T08:47:55.567Z,12.76
2018-04-27T08:50:23.872Z,12.86
2018-04-27T08:52:52.124Z,12.87
2018-04-27T08:55:20.428Z,12.93
2018-04-27T08:57:49.478Z,12.93
2018-04-27T09:00:17.773Z,12.94
2018-04-27T09:02:46.118Z,13.09
2018-04-27T09:05:14.360Z,13.16
2018-04-27T09:07:42.679Z,13.11
2018-04-27T09:10:10.941Z,13.19
2018-04-27T09:12:39.235Z,13.26
2018-04-27T09:15:07.499Z,13.48
2018-04-27T09:17:35.777Z,13.55
2018-04-27T09:20:04.083Z,13.59
2018-04-27T09:22:32.346Z,13.65
2018-04-27T09:25:00.663Z,13.62
2018-04-27T09:27:28.976Z,13.73
2018-04-27T09:29:57.192Z,13.80
2018-04-27T09:32:25.507Z,13.86
2018-04-27T09:34:54.548Z,13.95
2018-04-27T09:37:22.820Z,13.99
2018-04-27T09:39:51.108Z,14.11
2018-04-27T09:42:19.389Z,14.16
2018-04-27T09:44:47.690Z,14.16
2018-04-27T09:47:16.041Z,14.24
2018-04-27T09:49:44.328Z,14.26
2018-04-27T09:52:12.636Z,14.29
2018-04-27T09:54:40.959Z,14.39
2018-04-27T09:57:09.249Z,14.49
2018-04-27T09:59:37.512Z,14.60
2018-04-27T10:02:05.785Z,14.71
2018-04-27T10:04:34.075Z,14.69
2018-04-27T10:07:02.348Z,14.76
2018-04-27T10:09:30.648Z,14.81
2018-04-27T10:11:58.945Z,14.91
2018-04-27T10:14:27.226Z,14.93
2018-04-27T10:16:55.509Z,14.95
2018-04-27T10:19:23.792Z,15.01
2018-04-27T10:21:52.161Z,14.98
2018-04-27T10:24:20.455Z,15.05
2018-04-27T10:26:48.714Z,15.21
2018-04-27T10:29:17.005Z,15.35
2018-04-27T10:31:45.294Z,15.49
2018-04-27T10:34:13.594Z,15.53
2018-04-27T10:36:42.625Z,15.56
2018-04-27T10:39:10.909Z,15.55
2018-04-27T10:41:39.212Z,15.56
2018-04-27T10:44:07.475Z,15.57
2018-04-27T10:46:35.760Z,15.77
2018-04-27T10:49:04.022Z,15.74
2018-04-27T10:51:32.284Z,15.79
2018-04-27T10:54:00.589Z,15.82
2018-04-27T10:56:28.845Z,15.80
2018-04-27T10:58:57.148Z,15.85
2018-04-27T11:01:25.641Z,15.99
2018-04-27T11:03:53.879Z,16.06
2018-04-27T11:06:22.154Z,16.11
2018-04-27T11:08:50.470Z,16.19
2018-04-27T11:11:18.741Z,16.41
2018-04-27T11:13:47.031Z,16.45
2018-04-27T11:16:15.337Z,16.43
2018-04-27T11:18:44.377Z,16.46
2018-04-27T11:21:12.641Z,16.55
2018-04-27T11:23:40.925Z,16.73
2018-04-27T11:26:09.236Z,16.64
2018-04-27T11:28:37.583Z,16.64
2018-04-27T11:31:05.880Z,16.71
2018-04-27T11:33:34.147Z,16.68
2018-04-27T11:36:02.409Z,16.76
2018-04-27T11:38:30.687Z,16.87
2018-04-27T11:40:58.960Z,16.96
2018-04-27T11:43:27.257Z,17.21
2018-04-27T11:45:55.581Z,17.33
2018-04-27T11:48:24.637Z,17.33
2018-04-27T11:50:52.915Z,17.32
2018-04-27T11:53:21.195Z,17.25
2018-04-27T11:55:49.475Z,17.23
2018-04-27T11:58:17.762Z,17.11
2018-04-27T12:00:48.593Z,17.07
2018-04-27T12:03:16.816Z,17.13
2018-04-27T12:05:47.392Z,17.18
2018-04-27T12:08:15.651Z,17.22
2018-04-27T12:10:44.009Z,17.23
2018-04-27T12:13:12.238Z,17.42
2018-04-27T12:15:40.529Z,17.46
2018-04-27T12:18:08.796Z,17.47
2018-04-27T12:20:37.073Z,17.45
2018-04-27T12:23:05.335Z,17.52
2018-04-27T12:25:33.772Z,17.62
2018-04-27T12:28:02.812Z,17.63
2018-04-27T12:30:31.095Z,17.76
2018-04-27T12:32:59.390Z,17.85
2018-04-27T12:35:27.672Z,17.96
2018-04-27T12:37:55.942Z,18.09
2018-04-27T12:40:24.251Z,18.12
2018-04-27T12:42:53.278Z,18.13
2018-04-27T12:45:21.550Z,18.24
2018-04-27T12:47:49.836Z,18.37
2018-04-27T12:50:18.137Z,18.43
2018-04-27T12:52:46.424Z,18.45
2018-04-27T12:55:14.717Z,18.42
2018-04-27T12:57:43.513Z,18.42
2018-04-27T13:00:12.581Z,18.50
2018-04-27T13:02:40.875Z,18.50
2018-04-27T13:05:09.157Z,18.49
2018-04-27T13:07:37.463Z,18.51
2018-04-27T13:10:06.497Z,18.56
2018-04-27T13:12:34.756Z,18.50
2018-04-27T13:15:03.054Z,18.59
2018-04-27T13:17:31.320Z,18.62
2018-04-27T13:19:59.806Z,18.67
2018-04-27T13:22:28.078Z,18.77
2018-04-27T13:24:56.364Z,18.90
2018-04-27T13:27:24.674Z,18.90
2018-04-27T13:29:52.963Z,18.97
2018-04-27T13:32:21.276Z,19.08
2018-04-27T13:34:49.555Z,19.13
2018-04-27T13:37:17.829Z,19.29
2018-04-27T13:39:46.121Z,19.49
2018-04-27T13:42:14.393Z,19.68
2018-04-27T13:44:42.682Z,19.78
2018-04-27T13:47:10.959Z,19.85
2018-04-27T13:49:39.209Z,19.81
2018-04-27T13:52:07.486Z,19.98
2018-04-27T13:54:35.788Z,20.17
2018-04-27T13:57:04.083Z,20.34
2018-04-27T13:59:32.342Z,20.50
2018-04-27T14:02:00.643Z,20.53
2018-04-27T14:04:28.952Z,20.52
2018-04-27T14:06:57.207Z,20.55
2018-04-27T14:09:25.489Z,20.58
2018-04-27T14:11:53.756Z,20.77
2018-04-27T14:14:22.036Z,21.00
2018-04-27T14:16:50.345Z,20.93
2018-04-27T14:19:19.403Z,21.07
2018-04-27T14:21:47.661Z,21.29
2018-04-27T14:24:15.941Z,21.54
2018-04-27T14:26:44.264Z,21.79
2018-04-27T14:29:12.968Z,21.74
2018-04-27T14:31:42.212Z,21.87
2018-04-27T14:34:10.474Z,22.07
2018-04-27T14:36:38.796Z,22.21
2018-04-27T14:39:07.071Z,22.14
2018-04-27T14:41:35.395Z,22.25
2018-04-27T14:44:03.653Z,22.32
2018-04-27T14:46:33.162Z,21.99
2018-04-27T14:49:01.429Z,21.88
2018-04-27T14:51:29.691Z,22.20
2018-04-27T14:53:57.973Z,22.41
2018-04-27T14:56:26.276Z,22.71
2018-04-27T14:58:54.570Z,22.73
2018-04-27T15:01:22.798Z,22.65
2018-04-27T15:03:51.988Z,22.47
2018-04-27T15:06:20.275Z,22.39
2018-04-27T15:08:48.581Z,22.57
2018-04-27T15:11:18.160Z,22.86
2018-04-27T15:13:46.418Z,22.72
2018-04-27T15:16:14.745Z,22.66
2018-04-27T15:18:43.026Z,22.57
2018-04-27T15:21:12.081Z,22.46
2018-04-27T15:23:40.384Z,22.64
2018-04-27T15:26:09.031Z,22.56
2018-04-27T15:28:37.734Z,22.53
2018-04-27T15:31:06.073Z,22.46
2018-04-27T15:33:34.331Z,22.60
2018-04-27T15:36:02.636Z,22.76
2018-04-27T15:38:30.923Z,22.95
2018-04-27T15:41:00.110Z,23.20
2018-04-27T15:43:28.439Z,23.40
2018-04-27T15:45:56.751Z,23.33
2018-04-27T15:48:25.798Z,23.46
2018-04-27T15:50:54.079Z,23.59
2018-04-27T15:53:22.379Z,23.44
2018-04-27T15:55:50.681Z,23.42
2018-04-27T15:58:19.819Z,23.51
2018-04-27T16:00:48.098Z,23.18
2018-04-27T16:03:16.365Z,22.97
2018-04-27T16:05:44.845Z,22.94
2018-04-27T16:08:13.150Z,22.80
2018-04-27T16:10:41.461Z,22.78
2018-04-27T16:16:29.494Z,22.66
2018-04-27T16:18:59.865Z,22.70
2018-04-27T16:21:28.114Z,22.51
2018-04-27T16:23:56.391Z,22.14
2018-04-27T16:26:27.822Z,21.88
2018-04-27T16:28:56.839Z,21.86
2018-04-27T16:31:25.142Z,21.76
2018-04-27T16:33:54.200Z,21.66
2018-04-27T16:36:22.671Z,21.61
2018-04-27T16:38:51.368Z,21.39
2018-04-27T16:41:19.669Z,21.32
2018-04-27T16:43:48.419Z,21.31
2018-04-27T16:46:16.740Z,21.26
2018-04-27T16:48:45.008Z,21.17
2018-04-27T16:51:13.298Z,21.12
2018-04-27T16:53:42.369Z,21.14
2018-04-27T16:56:10.633Z,21.06
2018-04-27T16:58:38.986Z,20.98
2018-04-27T17:01:07.282Z,20.96
2018-04-27T17:03:35.610Z,20.91
2018-04-27T17:06:03.862Z,20.92
2018-04-27T17:08:32.139Z,20.81
2018-04-27T17:11:01.225Z,20.71
2018-04-27T17:13:29.606Z,20.71
2018-04-27T17:15:57.823Z,20.70
2018-04-27T17:18:27.279Z,20.77
2018-04-27T17:20:55.581Z,20.76
2018-04-27T17:23:24.209Z,20.72
2018-04-27T17:25:52.500Z,20.70
2018-04-27T17:28:20.785Z,20.69
2018-04-27T17:30:49.517Z,20.63
2018-04-27T17:33:18.194Z,20.53
2018-04-27T17:35:46.465Z,20.49
2018-04-27T17:38:14.951Z,20.43
2018-04-27T17:40:43.302Z,20.33
2018-04-27T17:43:11.566Z,20.26
2018-04-27T17:45:39.885Z,20.19
2018-04-27T17:48:08.230Z,20.04
2018-04-27T17:50:36.447Z,20.04
2018-04-27T17:53:04.723Z,19.79
2018-04-27T17:55:33.006Z,19.68
2018-04-27T17:58:01.273Z,19.70
2018-04-27T18:00:29.557Z,19.44
2018-04-27T18:02:57.829Z,19.32
2018-04-27T18:05:26.101Z,19.21
2018-04-27T18:07:54.409Z,19.10
2018-04-27T18:10:22.698Z,18.96
2018-04-27T18:12:51.748Z,18.76
2018-04-27T18:15:20.100Z,18.65
2018-04-27T18:17:48.422Z,18.45
2018-04-27T18:20:18.173Z,18.43
2018-04-27T18:22:46.467Z,18.28
2018-04-27T18:25:14.751Z,18.14
2018-04-27T18:27:43.138Z,17.98
2018-04-27T18:30:13.185Z,17.93
2018-04-27T18:32:41.610Z,17.74
2018-04-27T18:35:09.877Z,17.64
2018-04-27T18:37:38.945Z,17.50
2018-04-27T18:40:07.253Z,17.40
2018-04-27T18:42:36.388Z,17.34
2018-04-27T18:45:04.638Z,17.28
2018-04-27T18:47:32.907Z,17.09
2018-04-27T18:50:01.218Z,17.01
2018-04-27T18:52:29.590Z,16.98
2018-04-27T18:54:57.888Z,16.94
2018-04-27T18:57:26.293Z,16.82
2018-04-27T18:59:54.559Z,16.72
2018-04-27T19:02:22.864Z,16.59
2018-04-27T19:04:51.172Z,16.53
2018-04-27T19:07:23.300Z,16.45
2018-04-27T19:09:51.610Z,16.44
2018-04-27T19:12:19.904Z,16.22
2018-04-27T19:14:48.193Z,16.23
2018-04-27T19:17:17.234Z,16.23
2018-04-27T19:19:45.571Z,16.11
2018-04-27T19:22:19.612Z,15.94
2018-04-27T19:24:47.881Z,15.97
2018-04-27T19:27:16.155Z,15.92
2018-04-27T19:29:44.447Z,15.82
2018-04-27T19:32:12.716Z,15.65
2018-04-27T19:34:41.009Z,15.66
2018-04-27T19:37:09.324Z,15.51
2018-04-27T19:39:38.378Z,15.55
2018-04-27T19:42:06.664Z,15.41
2018-04-27T19:44:34.980Z,15.32
2018-04-27T19:47:03.994Z,15.26
2018-04-27T19:49:32.304Z,15.10
2018-04-27T19:52:00.605Z,15.00
2018-04-27T19:54:28.908Z,14.88
2018-04-27T19:56:58.752Z,14.80
2018-04-27T19:59:27.021Z,14.66
2018-04-27T20:01:55.339Z,14.56
2018-04-27T20:04:23.641Z,14.68
2018-04-27T20:06:53.591Z,14.55
2018-04-27T20:09:22.275Z,14.44
2018-04-27T20:11:50.650Z,14.32
2018-04-27T20:14:31.804Z,14.18
2018-04-27T20:17:06.142Z,14.17
2018-04-27T20:19:49.363Z,14.04
2018-04-27T20:22:20.565Z,14.01
2018-04-27T20:24:49.932Z,13.92
2018-04-27T20:27:18.842Z,13.96
2018-04-27T20:29:47.339Z,13.93
2018-04-27T20:32:15.801Z,13.80
2018-04-27T20:34:44.306Z,13.96
2018-04-27T20:37:12.704Z,13.96
2018-04-27T20:39:41.518Z,13.60
2018-04-27T20:42:09.789Z,13.70
2018-04-27T20:44:39.003Z,13.57
2018-04-27T20:47:08.157Z,13.53
2018-04-27T20:49:37.853Z,13.59
2018-04-27T20:52:06.365Z,13.34
2018-04-27T20:54:35.250Z,13.51
2018-04-27T20:57:09.746Z,13.51
2018-04-27T20:59:38.857Z,13.44
2018-04-27T21:02:07.502Z,13.39
2018-04-27T21:04:35.909Z,13.22
2018-04-27T21:07:04.300Z,13.20
2018-04-27T21:09:32.789Z,13.01
2018-04-27T21:12:01.330Z,12.83
2018-04-27T21:14:29.752Z,12.92
2018-04-27T21:16:58.053Z,13.03
2018-04-27T21:19:31.425Z,12.68
2018-04-27T21:21:59.688Z,12.63
2018-04-27T21:24:27.973Z,12.70
2018-04-27T21:26:58.256Z,12.63
2018-04-27T21:29:27.364Z,12.57
2018-04-27T21:31:55.651Z,12.60
2018-04-27T21:34:23.955Z,12.51
2018-04-27T21:36:52.229Z,12.40
2018-04-27T21:39:28.008Z,12.42
2018-04-27T21:42:02.819Z,12.48
2018-04-27T21:44:32.040Z,12.16
2018-04-27T21:50:10.049Z,12.15
2018-04-27T21:52:44.303Z,12.02
2018-04-27T21:55:12.659Z,12.07
2018-04-27T21:57:45.844Z,12.05
2018-04-27T22:00:15.068Z,11.94
2018-04-27T22:02:48.823Z,11.95
2018-04-27T22:11:45.545Z,11.70
2018-04-27T22:17:20.689Z,11.44
2018-04-27T22:19:52.479Z,11.63
2018-04-27T22:22:20.792Z,11.66
2018-04-27T22:24:54.159Z,11.58
2018-04-27T22:27:26.278Z,11.41
2018-04-27T22:29:58.727Z,11.26
2018-04-27T22:32:32.339Z,11.28
2018-04-27T22:35:06.758Z,11.46
2018-04-27T22:37:38.751Z,11.50
2018-04-27T22:40:09.354Z,11.48
2018-04-27T22:42:59.832Z,11.30
2018-04-27T22:45:30.364Z,11.16
2018-04-27T22:51:30.476Z,11.07
2018-04-27T22:54:00.354Z,10.98
2018-04-27T22:56:55.303Z,10.76
2018-04-27T22:59:30.288Z,10.97
2018-04-27T23:02:24.558Z,11.00
2018-04-27T23:05:08.270Z,10.98
2018-04-27T23:07:37.369Z,10.88
2018-04-27T23:10:07.096Z,10.60
2018-04-27T23:12:36.882Z,10.61
2018-04-27T23:15:07.789Z,10.73
2018-04-27T23:17:36.293Z,10.52
2018-04-27T23:20:20.244Z,10.53
2018-04-27T23:22:48.526Z,10.53
2018-04-27T23:25:21.585Z,10.47
2018-04-27T23:27:51.831Z,10.33
2018-04-27T23:30:23.639Z,10.44
2018-04-27T23:32:52.694Z,10.48
2018-04-27T23:35:21.815Z,10.41
2018-04-27T23:37:50.261Z,10.26
2018-04-27T23:40:18.535Z,10.26
2018-04-27T23:42:46.813Z,10.12
2018-04-27T23:45:15.903Z,10.11
2018-04-27T23:47:44.804Z,10.15
2018-04-27T23:50:14.446Z,10.10
2018-04-27T23:52:42.725Z,10.04
2018-04-27T23:55:11.012Z,10.00
2018-04-27T23:57:39.287Z,10.06
